Witter, Arkansas
Current Conditions -  °F | °C
As of 6:53 PM on Saturday 22 Nov 2014 (Local Time) from KFYV Reporting Station
Overcast Overcast  
Wind Chill: 53°   Ceiling: 10000
Heat Index: 53°   Visibility: 10mi
Dew Point: 53°   Wind: 13mph
Humidity: 100%   Direction: 180°S
Pressure: 29.93"   Gusts: NA
Location:  35.94°N, 93.68°W
Report Text: KFYV 230053Z 18011KT 10SM OVC100 12/12 A2993 RMK AO2 RAE12 SLP132 P0001 T01170117 $
Loading
Personal Weather Stations






























Interactive Weather Map New forecast layout! Learn more

10-Day Weather Forecast

Advertisements
Track Severe Weather on mobile